Montevideo, MN

2:51 AM CST on January 17, 2017 (GMT -0600)
Montevideo-Chippewa County

Weather History for KMVE - April, 2013

Change the Weather History Date:

Tuesday, April 30, 2013

  Actual Average Record
Temperature  
Mean Temperature 58 °F -  
Max Temperature 66 °F 63 °F 113 °F (1997)
Min Temperature 48 °F 39 °F 16 °F (1966)
Degree Days  
Heating Degree Days 7    
Growing Degree Days 8 (Base 50)    
Moisture  
Dew Point 41 °F    
Average Humidity 52    
Maximum Humidity 82    
Minimum Humidity 24    
Precipitation  
Precipitation 0.00 in - - ()
Sea Level Pressure  
Sea Level Pressure 29.65 in    
Wind  
Wind Speed 15 mph (NW)    
Max Wind Speed 21 mph    
Max Gust Speed 30 mph    
Visibility 10 miles    
Events Thunderstorm    
Averages and records for this station are not official NWS values.
T = Trace of Precipitation, MM = Missing Value Source: NWS Daily Summary

Daily Weather History Graph

Daily Weather History Graph

Search for Another Location

Airport or City:

Trip Planner

Search our weather history database for the weather conditions in past years. The results will help you decide how hot, cold, wet, or windy it might be!

Date:

Astronomy

Apr. 30, 2013 Rise Set
Actual Time 6:13 AM CDT 8:27 PM CDT
Civil Twilight 5:41 AM CDT 8:59 PM CDT
Nautical Twilight 5:01 AM CDT 9:40 PM CDT
Astronomical Twilight 4:16 AM CDT 10:24 PM CDT
Moon 12:54 AM CDT (4/30) 10:40 AM CDT (4/30)
Length of Visible Light 15h 18m
Length of Day
14h 14m
Waning Gibbous, 70% of the Moon is Illuminated
Apr 30
Waning Gibbous
May 2
Last Quarter
May 9
New
May 17
First Quarter
May 24
Full

Hourly Weather History & Observations

Time (CDT) Temp. Dew Point Humidity Pressure Visibility Wind Dir Wind Speed Gust Speed Precip Events Conditions
12:14 AM 66.2 °F 51.8 °F 60% 29.43 in 10.0 mi South 13.8 mph - N/A   Mostly Cloudy
12:35 AM 64.4 °F 53.6 °F 68% 29.42 in 10.0 mi South 13.8 mph - N/A   Scattered Clouds
12:54 AM 66.2 °F 53.6 °F 64% 29.40 in 10.0 mi South 15.0 mph - N/A   Clear
1:14 AM 66.2 °F 55.4 °F 68% 29.39 in 10.0 mi South 16.1 mph - N/A   Mostly Cloudy
1:33 AM 66.2 °F 55.4 °F 68% 29.38 in 10.0 mi South 15.0 mph 21.9 mph N/A   Mostly Cloudy
1:54 AM 66.2 °F 55.4 °F 68% 29.37 in 10.0 mi South 15.0 mph 21.9 mph N/A   Clear
2:34 AM 64.4 °F 55.4 °F 73% 29.35 in 10.0 mi South 13.8 mph 20.7 mph N/A   Clear
2:54 AM 64.4 °F 55.4 °F 73% 29.34 in 10.0 mi South 15.0 mph 21.9 mph N/A   Clear
3:14 AM 64.4 °F 55.4 °F 73% 29.33 in 10.0 mi South 15.0 mph 20.7 mph N/A   Clear
3:34 AM 62.6 °F 55.4 °F 77% 29.33 in 10.0 mi South 13.8 mph 20.7 mph N/A Thunderstorm Clear
3:54 AM 62.6 °F 55.4 °F 77% 29.32 in 10.0 mi SSW 12.7 mph 23.0 mph N/A   Clear
4:14 AM 62.6 °F 55.4 °F 77% 29.31 in 10.0 mi South 15.0 mph 20.7 mph N/A   Clear
4:34 AM 64.4 °F 55.4 °F 73% 29.31 in 10.0 mi SSW 17.3 mph 23.0 mph N/A   Clear
4:54 AM 64.4 °F 53.6 °F 68% 29.33 in 10.0 mi SW 16.1 mph 25.3 mph N/A   Clear
5:14 AM 64.4 °F 53.6 °F 68% 29.34 in 10.0 mi WSW 15.0 mph 25.3 mph N/A Thunderstorm Clear
5:34 AM 64.4 °F 51.8 °F 64% 29.36 in 10.0 mi WSW 16.1 mph 20.7 mph N/A   Clear
5:54 AM 64.4 °F 50.0 °F 59% 29.38 in 10.0 mi West 17.3 mph 23.0 mph N/A   Clear
6:14 AM 60.8 °F 48.2 °F 63% 29.40 in 10.0 mi NW 15.0 mph 26.5 mph N/A   Clear
6:34 AM 53.6 °F 46.4 °F 77% 29.44 in 10.0 mi NNW 17.3 mph 25.3 mph N/A   Clear
6:54 AM 51.8 °F 46.4 °F 82% 29.47 in 10.0 mi NNW 18.4 mph 26.5 mph N/A   Clear
7:14 AM 51.8 °F 46.4 °F 82% 29.49 in 10.0 mi NNW 15.0 mph 24.2 mph N/A   Clear
7:34 AM 51.8 °F 46.4 °F 82% 29.50 in 10.0 mi NNW 18.4 mph 25.3 mph N/A   Clear
7:54 AM 51.8 °F 46.4 °F 82% 29.52 in 10.0 mi NNW 18.4 mph 25.3 mph N/A   Clear
8:14 AM 51.8 °F 46.4 °F 82% 29.55 in 10.0 mi NNW 16.1 mph 24.2 mph N/A   Clear
8:34 AM 53.6 °F 46.4 °F 77% 29.56 in 10.0 mi NNW 18.4 mph 24.2 mph N/A   Clear
8:54 AM 55.4 °F 46.4 °F 72% 29.59 in 10.0 mi NNW 16.1 mph 28.8 mph N/A   Clear
9:14 AM 55.4 °F 46.4 °F 72% 29.59 in 10.0 mi NNW 18.4 mph 21.9 mph N/A   Clear
9:34 AM 57.2 °F 46.4 °F 67% 29.59 in 10.0 mi NNW 16.1 mph 23.0 mph N/A   Clear
9:54 AM 57.2 °F 44.6 °F 63% 29.61 in 10.0 mi NNW 13.8 mph 20.7 mph N/A   Clear
10:14 AM 60.8 °F 44.6 °F 55% 29.62 in 10.0 mi NW 16.1 mph 23.0 mph N/A   Scattered Clouds
10:34 AM 60.8 °F 42.8 °F 52% 29.62 in 10.0 mi NW 18.4 mph 27.6 mph N/A   Clear
10:54 AM 60.8 °F 42.8 °F 52% 29.64 in 10.0 mi NNW 18.4 mph 23.0 mph N/A   Clear
11:14 AM 62.6 °F 41.0 °F 45% 29.66 in 10.0 mi North 19.6 mph 25.3 mph N/A   Clear
11:34 AM 62.6 °F 41.0 °F 45% 29.67 in 10.0 mi NNW 16.1 mph 23.0 mph N/A   Clear
11:54 AM 62.6 °F 37.4 °F 39% 29.68 in 10.0 mi NNW 16.1 mph 23.0 mph N/A   Clear
12:14 PM 62.6 °F 35.6 °F 37% - 10.0 mi North 12.7 mph 21.9 mph N/A   Clear
12:34 PM 64.4 °F 32.0 °F 30% 29.69 in 10.0 mi North 15.0 mph 20.7 mph N/A   Clear
12:54 PM 64.4 °F 30.2 °F 28% 29.70 in 10.0 mi NW 13.8 mph 20.7 mph N/A   Clear
1:14 PM 64.4 °F 28.4 °F 26% 29.70 in 10.0 mi NW 16.1 mph 23.0 mph N/A   Clear
1:34 PM 64.4 °F 26.6 °F 24% 29.71 in 10.0 mi NW 16.1 mph 25.3 mph N/A   Clear
1:54 PM 62.6 °F 26.6 °F 26% 29.71 in 10.0 mi NNW 13.8 mph 28.8 mph N/A   Clear
2:14 PM 62.6 °F 28.4 °F 27% 29.72 in 10.0 mi NNW 15.0 mph 25.3 mph N/A   Clear
2:34 PM 62.6 °F 28.4 °F 27% 29.74 in 10.0 mi NW 16.1 mph 29.9 mph N/A   Clear
2:54 PM 62.6 °F 30.2 °F 30% 29.74 in 10.0 mi NNW 12.7 mph 19.6 mph N/A   Clear
3:13 PM 62.6 °F 28.4 °F 27% 29.75 in 10.0 mi NNW 16.1 mph 21.9 mph N/A   Clear
3:34 PM 62.6 °F 30.2 °F 30% 29.76 in 10.0 mi NNW 12.7 mph 20.7 mph N/A   Clear
3:54 PM 62.6 °F 28.4 °F 27% 29.77 in 10.0 mi NNW 17.3 mph 23.0 mph N/A   Clear
4:13 PM 62.6 °F 28.4 °F 27% 29.79 in 10.0 mi NNW 15.0 mph - N/A   Clear
4:34 PM 62.6 °F 30.2 °F 30% 29.81 in 10.0 mi NNW 10.4 mph 17.3 mph N/A   Clear
4:54 PM 60.8 °F 30.2 °F 31% 29.82 in 10.0 mi NNW 8.1 mph - N/A   Clear
5:14 PM 60.8 °F 30.2 °F 31% 29.83 in 10.0 mi NNW 11.5 mph - N/A   Clear
5:33 PM 60.8 °F 30.2 °F 31% 29.84 in 10.0 mi NNW 6.9 mph - N/A   Clear
5:54 PM 60.8 °F 30.2 °F 31% 29.86 in 10.0 mi NNW 10.4 mph - N/A   Clear
6:14 PM 60.8 °F 30.2 °F 31% 29.87 in 10.0 mi NNW 8.1 mph - N/A   Clear
6:34 PM 60.8 °F 30.2 °F 31% 29.89 in 10.0 mi NW 11.5 mph 16.1 mph N/A   Scattered Clouds
6:54 PM 60.8 °F 30.2 °F 31% 29.90 in 10.0 mi NNW 10.4 mph - N/A   Scattered Clouds
7:14 PM 59.0 °F 32.0 °F 36% 29.90 in 10.0 mi NNW 9.2 mph - N/A   Scattered Clouds
7:34 PM 59.0 °F 32.0 °F 36% 29.90 in 10.0 mi NW 8.1 mph - N/A   Clear
8:14 PM 57.2 °F 33.8 °F 41% 29.91 in 10.0 mi NNW 9.2 mph - N/A   Mostly Cloudy
8:34 PM 55.4 °F 33.8 °F 44% 29.91 in 10.0 mi NNW 9.2 mph - N/A   Scattered Clouds
9:14 PM 55.4 °F 33.8 °F 44% 29.94 in 10.0 mi NNW 10.4 mph - N/A   Mostly Cloudy
9:34 PM 55.4 °F 32.0 °F 41% 29.95 in 10.0 mi North 13.8 mph 19.6 mph N/A   Mostly Cloudy
10:14 PM 53.6 °F 35.6 °F 51% 29.96 in 10.0 mi North 15.0 mph 19.6 mph N/A   Overcast
10:34 PM 53.6 °F 35.6 °F 51% 29.98 in 10.0 mi North 10.4 mph 19.6 mph N/A   Overcast
10:54 PM 51.8 °F 35.6 °F 54% 30.00 in 10.0 mi North 11.5 mph - N/A   Mostly Cloudy
11:14 PM 51.8 °F 35.6 °F 54% 30.01 in 10.0 mi North 15.0 mph 21.9 mph N/A   Mostly Cloudy
11:34 PM 50.0 °F 35.6 °F 58% 30.03 in 10.0 mi North 13.8 mph 19.6 mph N/A   Overcast
11:54 PM 48.2 °F 35.6 °F 62% 30.03 in 10.0 mi NNE 20.7 mph 28.8 mph N/A   Overcast